Archival Weather

NSFA McMurdo Sound

NSFA McMurdo Sound, Antarctica (NZCM)

Report from: Friday, September 23, 2022 12:55 AM UTC
Current time: Sunday, December 4, 2022 12:40 PM UTC

Current weather
Weather history
Weather forecast

Temperature-22.2°C (-8.0°F)
Dew point-28.5°C (-19.3°F)
Winds Calm
Visibility6.2 mi. (10 km)
Altimeter28.69 in.Hg (972 mB)
Relative humidity56 %
Density altitude-3,298 ft. (-1,005 m)
Sea-level pressure107.2 kPa (1072 mB, 31.66 in.Hg)
Remarks Fully automated report
System requires maintenance
Automated weather observing station with precipitation discriminator
Flight conditions Visual Meteorological Conditions
Raw dataNZCM 230055Z AUTO 00000KT 9999 M22/M28 A2869 RMK AO2 SLP720 T12221285 $
An error has occurred. This application may no longer respond until reloaded. Reload 🗙